createdAt,value
2023-01-29T00:01:59.950Z,59.42
2023-01-29T00:04:27.105Z,54.00
2023-01-29T00:06:53.965Z,58.67
2023-01-29T00:09:21.016Z,58.42
2023-01-29T00:11:47.998Z,62.33
2023-01-29T00:14:14.928Z,53.28
2023-01-29T00:16:42.177Z,59.20
2023-01-29T00:19:09.251Z,54.60
2023-01-29T00:21:36.196Z,58.22
2023-01-29T00:24:03.289Z,56.42
2023-01-29T00:26:30.715Z,54.47
2023-01-29T00:29:02.433Z,58.90
2023-01-29T00:31:30.295Z,56.55
2023-01-29T00:33:57.860Z,57.10
2023-01-29T00:36:26.290Z,54.50
2023-01-29T00:39:02.984Z,55.67
2023-01-29T00:41:50.525Z,57.30
2023-01-29T00:44:36.524Z,55.88
2023-01-29T00:47:04.047Z,52.73
2023-01-29T00:49:38.483Z,52.30
2023-01-29T00:52:24.069Z,53.75
2023-01-29T00:54:51.902Z,53.50
2023-01-29T00:57:18.843Z,50.88
2023-01-29T00:59:45.701Z,50.47
2023-01-29T01:02:31.612Z,50.47
2023-01-29T01:04:58.450Z,50.28
2023-01-29T01:07:25.348Z,48.30
2023-01-29T01:10:10.749Z,48.55
2023-01-29T01:12:37.766Z,53.25
2023-01-29T01:15:05.163Z,50.80
2023-01-29T01:17:32.248Z,49.58
2023-01-29T01:19:59.051Z,48.20
2023-01-29T01:22:26.151Z,45.15
2023-01-29T01:24:52.972Z,44.97
2023-01-29T01:27:19.797Z,48.42
2023-01-29T01:29:47.172Z,46.00
2023-01-29T01:32:14.370Z,46.42
2023-01-29T01:34:41.248Z,48.10
2023-01-29T01:37:08.152Z,47.25
2023-01-29T01:39:35.092Z,45.33
2023-01-29T01:42:02.030Z,45.90
2023-01-29T01:45:08.266Z,51.88
2023-01-29T01:47:54.718Z,48.67
2023-01-29T01:50:40.288Z,47.30
2023-01-29T01:53:13.184Z,47.00
2023-01-29T01:55:56.101Z,42.88
2023-01-29T01:58:36.602Z,48.03
2023-01-29T02:04:13.773Z,46.97
2023-01-29T02:07:00.283Z,45.55
2023-01-29T02:09:36.040Z,46.17
2023-01-29T02:12:05.995Z,48.63
2023-01-29T02:14:34.951Z,44.22
2023-01-29T02:17:02.293Z,46.38
2023-01-29T02:19:58.244Z,42.60
2023-01-29T02:22:28.488Z,46.90
2023-01-29T02:25:16.583Z,46.35
2023-01-29T02:27:59.397Z,43.33
2023-01-29T02:30:40.500Z,45.05
2023-01-29T02:33:23.414Z,47.75
2023-01-29T02:35:54.868Z,43.85
2023-01-29T02:38:36.896Z,46.70
2023-01-29T02:41:32.105Z,44.70
2023-01-29T02:44:08.055Z,42.38
2023-01-29T02:46:43.765Z,42.35
2023-01-29T02:49:58.295Z,46.05
2023-01-29T02:52:51.154Z,41.78
2023-01-29T02:55:44.338Z,43.42
2023-01-29T02:58:18.354Z,43.00
2023-01-29T03:00:48.047Z,45.00
2023-01-29T03:03:18.035Z,47.78
2023-01-29T03:06:09.915Z,46.03
2023-01-29T03:08:45.732Z,44.45
2023-01-29T03:11:15.268Z,41.70
2023-01-29T03:14:00.278Z,45.63
2023-01-29T03:16:35.671Z,48.63
2023-01-29T03:19:09.477Z,47.10
2023-01-29T03:21:59.790Z,42.22
2023-01-29T03:25:01.156Z,45.90
2023-01-29T03:27:51.985Z,47.88
2023-01-29T03:30:39.355Z,41.88
2023-01-29T03:33:09.534Z,43.08
2023-01-29T03:35:43.544Z,45.20
2023-01-29T03:38:12.563Z,45.55
2023-01-29T03:40:53.834Z,44.30
2023-01-29T03:43:44.113Z,44.72
2023-01-29T03:46:36.588Z,41.38
2023-01-29T03:49:29.755Z,45.92
2023-01-29T03:52:18.275Z,39.85
2023-01-29T03:55:07.081Z,42.17
2023-01-29T03:57:41.387Z,45.97
2023-01-29T04:00:19.034Z,42.90
2023-01-29T04:03:15.344Z,40.88
2023-01-29T04:05:53.114Z,41.03
2023-01-29T04:08:36.403Z,39.78
2023-01-29T04:11:12.313Z,43.30
2023-01-29T04:13:40.184Z,44.38
2023-01-29T04:16:11.200Z,43.45
2023-01-29T04:18:38.520Z,42.45
2023-01-29T04:21:07.463Z,43.20
2023-01-29T04:23:34.785Z,45.65
2023-01-29T04:26:27.816Z,47.13
2023-01-29T04:29:06.369Z,44.92
2023-01-29T04:31:37.871Z,48.20
2023-01-29T04:34:26.804Z,45.28
2023-01-29T04:37:10.448Z,46.40
2023-01-29T04:39:59.286Z,46.10
2023-01-29T04:42:41.982Z,47.60
2023-01-29T04:45:34.225Z,49.28
2023-01-29T04:48:16.106Z,48.22
2023-01-29T04:51:19.417Z,48.78
2023-01-29T04:54:12.424Z,53.25
2023-01-29T04:56:44.804Z,49.92
2023-01-29T04:59:23.865Z,51.35
2023-01-29T05:01:50.985Z,50.08
2023-01-29T05:04:21.039Z,50.72
2023-01-29T05:06:51.457Z,48.47
2023-01-29T05:09:20.107Z,50.55
2023-01-29T05:11:49.035Z,49.50
2023-01-29T05:14:19.324Z,52.22
2023-01-29T05:16:51.836Z,48.15
2023-01-29T05:19:18.832Z,49.35
2023-01-29T05:21:48.944Z,51.35
2023-01-29T05:24:19.694Z,49.83
2023-01-29T05:27:07.763Z,52.15
2023-01-29T05:29:35.021Z,51.08
2023-01-29T05:32:02.136Z,48.35
2023-01-29T05:34:29.018Z,54.85
2023-01-29T05:36:56.173Z,54.58
2023-01-29T05:39:23.099Z,51.35
2023-01-29T05:41:50.066Z,52.72
2023-01-29T05:44:17.329Z,55.90
2023-01-29T05:46:44.827Z,54.08
2023-01-29T05:49:12.096Z,52.30
2023-01-29T05:51:39.026Z,55.40
2023-01-29T05:54:05.895Z,54.35
2023-01-29T05:56:32.814Z,59.28
2023-01-29T05:58:59.835Z,55.97
2023-01-29T06:01:26.978Z,53.15
2023-01-29T06:03:53.856Z,53.83
2023-01-29T06:06:20.797Z,57.75
2023-01-29T06:08:48.097Z,55.67
2023-01-29T06:11:18.455Z,54.58
2023-01-29T06:13:46.021Z,50.28
2023-01-29T06:16:14.389Z,54.42
2023-01-29T06:18:42.542Z,51.35
2023-01-29T06:21:13.720Z,54.53
2023-01-29T06:23:41.317Z,53.90
2023-01-29T06:26:12.124Z,54.33
2023-01-29T06:28:39.274Z,58.75
2023-01-29T06:31:26.592Z,52.67
2023-01-29T06:33:54.318Z,50.60
2023-01-29T06:36:21.286Z,56.92
2023-01-29T06:38:48.282Z,50.45
2023-01-29T06:41:18.274Z,54.53
2023-01-29T06:43:46.060Z,52.22
2023-01-29T06:46:12.969Z,51.72
2023-01-29T06:48:40.058Z,51.33
2023-01-29T06:51:08.896Z,50.80
2023-01-29T06:53:37.443Z,51.28
2023-01-29T06:56:05.668Z,47.35
2023-01-29T06:58:32.606Z,55.70
2023-01-29T07:01:06.612Z,52.67
2023-01-29T07:03:33.675Z,58.38
2023-01-29T07:06:03.426Z,55.92
2023-01-29T07:08:30.518Z,56.65
2023-01-29T07:11:01.524Z,57.20
2023-01-29T07:13:30.807Z,62.63
2023-01-29T07:16:07.483Z,54.97
2023-01-29T07:18:34.549Z,76.97
2023-01-29T07:21:06.582Z,66.60
2023-01-29T07:23:35.005Z,62.72
2023-01-29T07:26:06.338Z,60.15
2023-01-29T07:28:37.747Z,59.83
2023-01-29T07:31:06.088Z,63.47
2023-01-29T07:33:33.841Z,62.00
2023-01-29T07:36:02.438Z,63.63
2023-01-29T07:38:29.337Z,55.03
2023-01-29T07:40:56.256Z,55.15
2023-01-29T07:43:25.515Z,61.00
2023-01-29T07:45:52.562Z,65.43
2023-01-29T07:48:19.739Z,55.72
2023-01-29T07:50:55.432Z,61.58
2023-01-29T07:53:22.702Z,63.90
2023-01-29T07:55:49.539Z,59.60
2023-01-29T07:58:16.374Z,62.42
2023-01-29T08:00:44.244Z,52.92
2023-01-29T08:03:16.926Z,55.38
2023-01-29T08:05:45.534Z,57.33
2023-01-29T08:08:13.508Z,52.22
2023-01-29T08:10:41.047Z,50.53
2023-01-29T08:13:08.542Z,54.70
2023-01-29T08:15:39.226Z,47.88
2023-01-29T08:18:08.428Z,51.75
2023-01-29T08:20:35.230Z,48.72
2023-01-29T08:23:07.631Z,49.75
2023-01-29T08:25:35.972Z,45.63
2023-01-29T08:28:02.913Z,45.33
2023-01-29T08:30:31.867Z,43.60
2023-01-29T08:32:59.287Z,47.17
2023-01-29T08:35:26.795Z,47.63
2023-01-29T08:38:01.650Z,44.63
2023-01-29T08:40:32.306Z,50.35
2023-01-29T08:43:02.198Z,43.80
2023-01-29T08:45:30.974Z,42.25
2023-01-29T08:47:57.983Z,40.47
2023-01-29T08:50:24.935Z,43.10
2023-01-29T08:52:51.926Z,43.20
2023-01-29T08:55:19.133Z,44.38
2023-01-29T08:57:46.421Z,47.38
2023-01-29T09:00:14.794Z,44.42
2023-01-29T09:02:42.339Z,44.78
2023-01-29T09:05:10.058Z,49.88
2023-01-29T09:07:37.375Z,49.40
2023-01-29T09:10:23.098Z,51.28
2023-01-29T09:12:50.092Z,55.25
2023-01-29T09:15:17.543Z,60.55
2023-01-29T09:17:44.606Z,65.15
2023-01-29T09:20:12.322Z,57.45
2023-01-29T09:22:39.208Z,60.25
2023-01-29T09:25:06.787Z,58.33
2023-01-29T09:27:34.169Z,65.50
2023-01-29T09:30:01.018Z,78.53
2023-01-29T09:32:52.665Z,62.25
2023-01-29T09:35:17.895Z,61.70
2023-01-29T09:37:48.375Z,67.40
2023-01-29T09:40:35.495Z,64.45
2023-01-29T09:43:15.796Z,62.50
2023-01-29T09:46:06.558Z,69.15
2023-01-29T09:48:36.645Z,69.63
2023-01-29T09:51:14.025Z,65.80
2023-01-29T09:53:47.741Z,63.75
2023-01-29T09:56:20.306Z,59.47
2023-01-29T09:58:47.722Z,67.95
2023-01-29T10:01:37.976Z,64.57
2023-01-29T10:04:21.451Z,62.28
2023-01-29T10:06:48.487Z,61.97
2023-01-29T10:09:39.432Z,66.95
2023-01-29T10:12:37.331Z,63.88
2023-01-29T10:15:28.789Z,63.45
2023-01-29T10:18:03.779Z,71.47
2023-01-29T10:20:49.053Z,65.88
2023-01-29T10:23:25.279Z,65.50
2023-01-29T10:25:53.748Z,72.25
2023-01-29T10:28:46.391Z,68.13
2023-01-29T10:31:39.131Z,70.85
2023-01-29T10:34:34.739Z,70.45
2023-01-29T10:37:07.105Z,76.60
2023-01-29T10:39:34.526Z,75.78
2023-01-29T10:42:41.197Z,75.22
2023-01-29T10:45:33.859Z,76.95
2023-01-29T10:48:06.976Z,77.97
2023-01-29T10:50:50.930Z,255.18
2023-01-29T10:53:30.007Z,83.10
2023-01-29T10:56:29.434Z,80.32
2023-01-29T10:59:06.011Z,82.80
2023-01-29T11:04:04.698Z,81.68
2023-01-29T11:06:37.094Z,85.47
2023-01-29T11:09:13.968Z,82.88
2023-01-29T11:11:52.211Z,90.15
2023-01-29T11:14:27.220Z,79.95
2023-01-29T11:16:54.385Z,78.93
2023-01-29T11:19:41.585Z,83.80
2023-01-29T11:22:16.815Z,80.82
2023-01-29T11:24:44.187Z,82.72
2023-01-29T11:27:30.049Z,76.60
2023-01-29T11:29:57.476Z,82.57
2023-01-29T11:32:24.532Z,81.70
2023-01-29T11:35:16.776Z,80.75
2023-01-29T11:37:46.624Z,81.05
2023-01-29T11:40:19.375Z,85.13
2023-01-29T11:42:50.130Z,84.25
2023-01-29T11:45:23.223Z,80.20
2023-01-29T11:47:53.324Z,78.88
2023-01-29T11:50:24.628Z,78.28
2023-01-29T11:52:52.030Z,78.38
2023-01-29T11:55:49.909Z,75.30
2023-01-29T12:00:55.755Z,75.88
2023-01-29T12:03:43.976Z,79.78
2023-01-29T12:06:31.808Z,81.53
2023-01-29T12:09:01.935Z,76.82
2023-01-29T12:11:30.028Z,77.05
2023-01-29T12:14:05.173Z,76.95
2023-01-29T12:17:03.765Z,74.43
2023-01-29T12:19:50.997Z,77.82
2023-01-29T12:22:22.559Z,73.82
2023-01-29T12:24:55.472Z,75.45
2023-01-29T12:27:32.771Z,73.97
2023-01-29T12:30:12.027Z,76.10
2023-01-29T12:32:55.819Z,74.13
2023-01-29T12:35:31.815Z,71.78
2023-01-29T12:38:10.577Z,65.80
2023-01-29T12:40:44.701Z,73.10
2023-01-29T12:43:28.947Z,73.93
2023-01-29T12:45:58.574Z,77.15
2023-01-29T12:48:34.111Z,67.63
2023-01-29T12:51:24.758Z,74.27
2023-01-29T12:54:00.043Z,74.30
2023-01-29T12:56:37.162Z,72.57
2023-01-29T12:59:21.766Z,72.15
2023-01-29T13:01:54.937Z,74.03
2023-01-29T13:04:42.803Z,71.45
2023-01-29T13:07:15.163Z,69.63
2023-01-29T13:09:45.933Z,74.15
2023-01-29T13:12:18.939Z,76.95
2023-01-29T13:14:57.728Z,82.72
2023-01-29T13:17:33.285Z,79.38
2023-01-29T13:20:17.063Z,78.10
2023-01-29T13:22:46.001Z,83.53
2023-01-29T13:25:19.338Z,84.45
2023-01-29T13:27:48.385Z,76.30
2023-01-29T13:30:44.917Z,81.03
2023-01-29T13:33:24.193Z,83.87
2023-01-29T13:36:18.409Z,92.03
2023-01-29T13:38:45.423Z,96.47
2023-01-29T13:41:13.552Z,84.43
2023-01-29T13:46:25.296Z,88.35
2023-01-29T13:48:55.823Z,88.30
2023-01-29T13:51:28.080Z,88.65
2023-01-29T13:54:04.117Z,83.43
2023-01-29T13:56:33.729Z,90.57
2023-01-29T13:59:03.495Z,82.70
2023-01-29T14:01:48.928Z,92.40
2023-01-29T14:04:32.566Z,88.18
2023-01-29T14:07:00.667Z,92.13
2023-01-29T14:09:42.854Z,85.90
2023-01-29T14:12:21.994Z,90.63
2023-01-29T14:14:49.272Z,101.78
2023-01-29T14:17:19.057Z,89.78
2023-01-29T14:19:55.653Z,102.85
2023-01-29T14:22:32.647Z,89.05
2023-01-29T14:25:03.641Z,83.75
2023-01-29T14:27:31.561Z,87.38
2023-01-29T14:30:01.786Z,97.32
2023-01-29T14:32:29.696Z,81.93
2023-01-29T14:35:03.390Z,93.90
2023-01-29T14:37:34.612Z,86.95
2023-01-29T14:43:02.914Z,84.90
2023-01-29T14:48:11.128Z,85.80
2023-01-29T15:05:49.754Z,89.07
2023-01-29T15:08:40.845Z,78.82
2023-01-29T15:11:32.895Z,82.00
2023-01-29T15:14:36.610Z,79.70
2023-01-29T15:50:46.062Z,81.63
2023-01-29T16:04:11.693Z,76.68
2023-01-29T16:06:41.101Z,85.43
2023-01-29T16:09:09.008Z,85.13
2023-01-29T16:11:36.408Z,82.75
2023-01-29T16:14:04.097Z,77.15
2023-01-29T16:16:31.213Z,83.13
2023-01-29T16:19:00.844Z,79.65
2023-01-29T16:21:36.525Z,77.38
2023-01-29T16:24:14.109Z,74.30
2023-01-29T16:26:47.613Z,79.25
2023-01-29T16:29:30.388Z,73.53
2023-01-29T16:32:02.221Z,79.55
2023-01-29T16:34:41.427Z,81.78
2023-01-29T16:37:26.500Z,76.13
2023-01-29T16:39:53.463Z,80.07
2023-01-29T16:42:23.359Z,78.43
2023-01-29T16:45:28.143Z,74.28
2023-01-29T16:51:11.070Z,81.90
2023-01-29T16:53:38.280Z,72.05
2023-01-29T16:56:08.289Z,73.57
2023-01-29T16:58:36.752Z,75.95
2023-01-29T17:01:09.228Z,76.75
2023-01-29T17:03:37.562Z,75.45
2023-01-29T17:06:14.916Z,72.75
2023-01-29T17:08:49.513Z,69.45
2023-01-29T17:11:28.904Z,75.93
2023-01-29T17:13:57.346Z,71.50
2023-01-29T17:16:31.647Z,68.15
2023-01-29T17:18:59.677Z,72.80
2023-01-29T17:21:26.964Z,78.55
2023-01-29T17:23:54.060Z,80.68
2023-01-29T17:26:21.507Z,78.93
2023-01-29T17:28:51.524Z,76.95
2023-01-29T17:31:18.459Z,76.38
2023-01-29T17:33:46.064Z,71.85
2023-01-29T17:36:15.837Z,77.20
2023-01-29T17:38:43.116Z,72.30
2023-01-29T17:41:23.050Z,76.53
2023-01-29T17:43:50.047Z,74.70
2023-01-29T17:46:23.119Z,84.38
2023-01-29T17:48:50.370Z,77.55
2023-01-29T17:51:18.460Z,76.95
2023-01-29T17:53:47.005Z,82.00
2023-01-29T17:56:17.130Z,75.97
2023-01-29T17:58:44.515Z,77.03
2023-01-29T18:01:11.412Z,82.20
2023-01-29T18:03:38.423Z,77.57
2023-01-29T18:06:08.804Z,83.07
2023-01-29T18:08:38.258Z,86.80
2023-01-29T18:11:05.738Z,86.05
2023-01-29T18:13:35.540Z,88.22
2023-01-29T18:16:02.598Z,82.45
2023-01-29T18:18:29.704Z,83.20
2023-01-29T18:20:56.478Z,85.82
2023-01-29T18:23:23.330Z,86.18
2023-01-29T18:25:50.253Z,84.90
2023-01-29T18:28:17.816Z,90.47
2023-01-29T18:30:48.038Z,85.97
2023-01-29T18:33:16.523Z,85.65
2023-01-29T18:35:50.069Z,87.03
2023-01-29T18:38:17.560Z,84.93
2023-01-29T18:40:44.498Z,84.18
2023-01-29T18:43:11.374Z,90.40
2023-01-29T18:45:41.180Z,93.63
2023-01-29T18:48:08.237Z,85.82
2023-01-29T18:50:36.359Z,94.22
2023-01-29T18:53:08.945Z,89.70
2023-01-29T18:55:36.241Z,92.65
2023-01-29T18:58:28.983Z,102.10
2023-01-29T19:00:52.436Z,96.10
2023-01-29T19:03:23.089Z,101.15
2023-01-29T19:05:52.098Z,97.60
2023-01-29T19:08:19.164Z,105.32
2023-01-29T19:10:46.233Z,99.03
2023-01-29T19:13:13.473Z,100.07
2023-01-29T19:15:43.278Z,96.55
2023-01-29T19:18:12.557Z,101.22
2023-01-29T19:20:45.232Z,99.00
2023-01-29T19:23:14.062Z,97.10
2023-01-29T19:25:41.044Z,89.03
2023-01-29T19:28:08.311Z,94.10
2023-01-29T19:30:36.592Z,94.97
2023-01-29T19:33:04.830Z,99.13
2023-01-29T19:35:33.154Z,95.72
2023-01-29T19:38:01.438Z,97.53
2023-01-29T19:40:28.500Z,105.40
2023-01-29T19:42:56.484Z,100.97
2023-01-29T19:45:49.441Z,93.55
2023-01-29T19:48:17.023Z,99.75
2023-01-29T19:50:43.922Z,95.00
2023-01-29T19:53:10.831Z,97.43
2023-01-29T19:55:37.960Z,92.68
2023-01-29T19:58:05.087Z,94.80
2023-01-29T20:00:32.192Z,91.93
2023-01-29T20:02:59.004Z,93.72
2023-01-29T20:05:27.465Z,89.65
2023-01-29T20:07:54.314Z,87.32
2023-01-29T20:10:21.542Z,89.10
2023-01-29T20:12:48.557Z,89.13
2023-01-29T20:15:15.611Z,85.75
2023-01-29T20:17:42.606Z,84.65
2023-01-29T20:20:10.279Z,89.90
2023-01-29T20:22:38.069Z,83.65
2023-01-29T20:25:05.340Z,87.28
2023-01-29T20:27:32.172Z,87.38
2023-01-29T20:29:59.839Z,87.70
2023-01-29T20:32:26.856Z,82.35
2023-01-29T20:34:53.712Z,82.30
2023-01-29T20:37:20.878Z,81.90
2023-01-29T20:39:47.956Z,86.85
2023-01-29T20:42:15.340Z,86.88
2023-01-29T20:44:42.242Z,93.75
2023-01-29T20:47:09.408Z,84.47
2023-01-29T20:49:36.358Z,90.22
2023-01-29T20:52:03.272Z,89.18
2023-01-29T20:54:33.304Z,92.05
2023-01-29T20:57:00.537Z,88.43
2023-01-29T20:59:29.510Z,89.15
2023-01-29T21:01:56.585Z,93.95
2023-01-29T21:04:23.685Z,93.65
2023-01-29T21:06:52.476Z,93.80
2023-01-29T21:09:20.836Z,87.10
2023-01-29T21:11:48.017Z,90.00
2023-01-29T21:14:17.330Z,92.45
2023-01-29T21:16:44.403Z,93.35
2023-01-29T21:19:14.529Z,94.72
2023-01-29T21:21:41.807Z,85.03
2023-01-29T21:24:10.596Z,91.70
2023-01-29T21:26:38.687Z,92.88
2023-01-29T21:29:05.581Z,88.72
2023-01-29T21:31:33.716Z,88.00
2023-01-29T21:34:00.527Z,88.88
2023-01-29T21:36:27.444Z,83.88
2023-01-29T21:38:54.304Z,86.47
2023-01-29T21:41:41.134Z,86.50
2023-01-29T21:44:08.222Z,91.55
2023-01-29T21:46:35.367Z,84.03
2023-01-29T21:49:06.607Z,87.47
2023-01-29T21:51:34.573Z,86.35
2023-01-29T21:54:03.583Z,84.88
2023-01-29T21:56:30.785Z,80.10
2023-01-29T21:59:01.031Z,80.55
2023-01-29T22:01:37.471Z,87.35
2023-01-29T22:04:07.850Z,82.75
2023-01-29T22:06:34.842Z,80.72
2023-01-29T22:09:01.736Z,83.25
2023-01-29T22:11:28.995Z,83.63
2023-01-29T22:13:56.154Z,81.78
2023-01-29T22:16:23.104Z,80.25
2023-01-29T22:18:50.464Z,81.78
2023-01-29T22:21:17.416Z,73.88
2023-01-29T22:23:48.661Z,80.85
2023-01-29T22:26:16.221Z,81.03
2023-01-29T22:28:43.247Z,77.88
2023-01-29T22:31:10.589Z,74.90
2023-01-29T22:33:37.810Z,81.00
2023-01-29T22:36:05.014Z,73.97
2023-01-29T22:38:32.103Z,84.07
2023-01-29T22:41:00.694Z,72.60
2023-01-29T22:43:27.714Z,76.22
2023-01-29T22:45:55.236Z,82.03
2023-01-29T22:48:23.434Z,74.03
2023-01-29T22:51:09.814Z,72.35
2023-01-29T22:53:48.633Z,73.68
2023-01-29T22:56:16.466Z,77.30
2023-01-29T22:58:43.325Z,75.95
2023-01-29T23:01:10.909Z,76.45
2023-01-29T23:03:37.828Z,73.95
2023-01-29T23:06:04.800Z,74.90
2023-01-29T23:08:34.231Z,77.03
2023-01-29T23:11:15.119Z,82.25
2023-01-29T23:13:46.651Z,79.00
2023-01-29T23:16:14.854Z,80.65
2023-01-29T23:18:42.149Z,77.45
2023-01-29T23:21:09.820Z,85.43
2023-01-29T23:23:37.996Z,80.97
2023-01-29T23:26:25.443Z,80.40
2023-01-29T23:28:52.726Z,89.75
2023-01-29T23:31:19.633Z,81.65
2023-01-29T23:33:46.664Z,79.35
2023-01-29T23:36:13.558Z,82.65
2023-01-29T23:38:40.411Z,80.43
2023-01-29T23:41:07.566Z,79.38
2023-01-29T23:43:35.001Z,82.13
2023-01-29T23:46:04.271Z,90.30
2023-01-29T23:48:31.191Z,83.30
2023-01-29T23:50:58.182Z,81.97
2023-01-29T23:53:25.076Z,82.20
2023-01-29T23:56:03.944Z,90.50
2023-01-29T23:58:31.807Z,83.00
